Time;durP1;ratioP1;P1;durP2;ratioP2;P2;SDS_P1;SDS_P2;PMS_P1;PMS_P2;Temp;Humidity;BMP_temperature;BMP_pressure;BME280_temperature;BME280_humidity;BME280_pressure;Samples;Min_cycle;Max_cycle;Signal;HPM_P1;HPM_P2
2023/10/15 00:00:05;;;;;;;;;;;;;;;;;;5092259;28;19905;-89
2023/10/15 00:02:31;;;;;;;;;;;;;;;;;;5092136;28;19908;-89
2023/10/15 00:05:01;;;;;;;;;;;;;;;;;;5088821;28;20030;-87
2023/10/15 00:07:27;;;;;;;;;;;;;;;;;;5071975;28;19909;-85
2023/10/15 00:09:53;;;;;;;;;;;;;;;;;;5077656;28;19916;-87
2023/10/15 00:12:19;;;;;;;;;;;;;;;;;;5091493;28;20276;-87
2023/10/15 00:14:45;;;;;;;;;;;;;;;;;;5091693;28;19916;-88
2023/10/15 00:17:11;;;;;;;;;;;;;;;;;;5090779;28;20318;-87
2023/10/15 00:19:37;;;;;;;;;;;;;;;;;;5090320;28;19919;-88
2023/10/15 00:22:03;;;;;;;;;;;;;;;;;;5090641;28;19908;-87
2023/10/15 00:24:28;;;;;;;;;;;;;;;;;;5091715;28;19912;-88
2023/10/15 00:26:54;;;;;;;;;;;;;;;;;;5090442;28;19958;-87
2023/10/15 00:29:22;;;;;;;;;;;;;;;;;;5091421;28;19912;-86
2023/10/15 00:31:48;;;;;;;;;;;;;;;;;;5091523;28;19957;-87
2023/10/15 00:34:14;;;;;;;;;;;;;;;;;;5090380;28;19912;-85
2023/10/15 00:36:39;;;;;;;;;;;;;;;;;;5091528;28;19971;-88
2023/10/15 00:39:12;;;;;;;;;;;;;;;;;;5090239;28;19908;-87
2023/10/15 00:41:40;;;;;;;;;;;;;;;;;;5091280;28;20360;-87
2023/10/15 00:44:09;;;;;;;;;;;;;;;;;;5091319;28;20322;-89
2023/10/15 00:46:37;;;;;;;;;;;;;;;;;;5089877;28;19912;-88
2023/10/15 00:49:09;;;;;;;;;;;;;;;;;;5104060;28;19951;-87
2023/10/15 00:51:40;;;;;;;;;;;;;;;;;;5091223;28;19912;-86
2023/10/15 00:54:10;;;;;;;;;;;;;;;;;;5089866;28;19912;-87
2023/10/15 00:56:36;;;;;;;;;;;;;;;;;;5089682;28;19983;-87
2023/10/15 00:59:09;;;;;;;;;;;;;;;;;;5089941;28;19995;-87
2023/10/15 01:01:37;;;;;;;;;;;;;;;;;;5091149;28;19919;-87
2023/10/15 01:04:06;;;;;;;;;;;;;;;;;;5089105;28;19931;-87
2023/10/15 01:09:08;;;;;;;;;;;;;;;;;;5090869;28;19916;-88
2023/10/15 01:11:34;;;;;;;;;;;;;;;;;;5089669;28;19935;-88
2023/10/15 01:14:00;;;;;;;;;;;;;;;;;;5091055;28;20349;-87
2023/10/15 01:16:28;;;;;;;;;;;;;;;;;;5091414;28;19918;-88
2023/10/15 01:21:38;;;;;;;;;;;;;;;;;;5090990;28;20322;-87
2023/10/15 01:24:07;;;;;;;;;;;;;;;;;;5087231;28;19916;-87
2023/10/15 01:26:34;;;;;;;;;;;;;;;;;;5090816;28;19931;-88
2023/10/15 01:29:01;;;;;;;;;;;;;;;;;;5090272;28;19927;-87
2023/10/15 01:31:27;;;;;;;;;;;;;;;;;;5090436;28;19918;-88
2023/10/15 01:33:53;;;;;;;;;;;;;;;;;;5089545;28;19908;-87
2023/10/15 01:36:21;;;;;;;;;;;;;;;;;;5090364;28;20113;-86
2023/10/15 01:38:54;;;;;;;;;;;;;;;;;;5089366;28;19995;-87
2023/10/15 01:41:22;;;;;;;;;;;;;;;;;;5090424;28;19956;-83
2023/10/15 01:43:49;;;;;;;;;;;;;;;;;;5090483;28;19912;-88
2023/10/15 01:49:06;;;;;;;;;;;;;;;;;;5090100;28;19969;-84
2023/10/15 01:51:39;;;;;;;;;;;;;;;;;;5089182;28;19915;-87
2023/10/15 01:54:05;;;;;;;;;;;;;;;;;;5090231;28;19912;-84
2023/10/15 01:56:36;;;;;;;;;;;;;;;;;;5090362;28;19915;-84
2023/10/15 01:59:07;;;;;;;;;;;;;;;;;;5089908;28;20284;-87
2023/10/15 02:01:37;;;;;;;;;;;;;;;;;;5088552;28;19919;-88
2023/10/15 02:04:03;;;;;;;;;;;;;;;;;;5090077;28;19919;-88
2023/10/15 02:06:35;;;;;;;;;;;;;;;;;;5088551;28;19913;-87
2023/10/15 02:09:07;;;;;;;;;;;;;;;;;;5089035;28;20008;-84
2023/10/15 02:11:36;;;;;;;;;;;;;;;;;;5089932;28;19912;-87
2023/10/15 02:14:02;;;;;;;;;;;;;;;;;;5088846;28;20371;-85
2023/10/15 02:16:32;;;;;;;;;;;;;;;;;;5089092;28;20445;-87
2023/10/15 02:18:59;;;;;;;;;;;;;;;;;;5090917;28;19912;-87
2023/10/15 02:21:25;;;;;;;;;;;;;;;;;;5088654;28;19994;-86
2023/10/15 02:23:51;;;;;;;;;;;;;;;;;;5089845;28;20266;-88
2023/10/15 02:26:18;;;;;;;;;;;;;;;;;;5089139;28;19942;-85
2023/10/15 02:28:44;;;;;;;;;;;;;;;;;;5088548;28;19919;-87
2023/10/15 02:33:35;;;;;;;;;;;;;;;;;;5089682;28;19939;-85
2023/10/15 02:36:06;;;;;;;;;;;;;;;;;;5089562;28;20386;-85
2023/10/15 02:38:37;;;;;;;;;;;;;;;;;;5090120;28;19915;-84
2023/10/15 02:41:06;;;;;;;;;;;;;;;;;;5089640;28;20394;-84
2023/10/15 02:43:32;;;;;;;;;;;;;;;;;;5089360;28;19912;-84
2023/10/15 02:46:10;;;;;;;;;;;;;;;;;;5089567;28;20030;-87
2023/10/15 02:48:41;;;;;;;;;;;;;;;;;;5087233;28;19916;-87
2023/10/15 02:51:08;;;;;;;;;;;;;;;;;;5089891;28;19920;-85
2023/10/15 02:53:36;;;;;;;;;;;;;;;;;;5089882;28;19919;-86
2023/10/15 02:56:11;;;;;;;;;;;;;;;;;;5089558;28;20402;-87
2023/10/15 02:58:38;;;;;;;;;;;;;;;;;;5089845;28;19955;-87
2023/10/15 03:01:13;;;;;;;;;;;;;;;;;;5088726;28;20279;-84
2023/10/15 03:03:48;;;;;;;;;;;;;;;;;;5089948;28;19931;-85
2023/10/15 03:06:18;;;;;;;;;;;;;;;;;;5089459;28;20023;-87
2023/10/15 03:08:45;;;;;;;;;;;;;;;;;;5086753;28;19920;-88
2023/10/15 03:11:18;;;;;;;;;;;;;;;;;;5090786;28;19912;-86
2023/10/15 03:13:51;;;;;;;;;;;;;;;;;;5092096;28;19973;-87
2023/10/15 03:16:18;;;;;;;;;;;;;;;;;;5093189;28;20283;-87
2023/10/15 03:18:48;;;;;;;;;;;;;;;;;;5093238;28;19995;-86
2023/10/15 03:21:24;;;;;;;;;;;;;;;;;;5092127;28;19954;-87
2023/10/15 03:23:50;;;;;;;;;;;;;;;;;;5091907;28;19918;-87
2023/10/15 03:26:19;;;;;;;;;;;;;;;;;;5092549;28;20365;-86
2023/10/15 03:28:45;;;;;;;;;;;;;;;;;;5092814;28;19912;-87
2023/10/15 03:31:14;;;;;;;;;;;;;;;;;;5090979;28;19912;-86
2023/10/15 03:33:41;;;;;;;;;;;;;;;;;;5092664;28;19912;-87
2023/10/15 03:36:12;;;;;;;;;;;;;;;;;;5090696;28;19915;-86
2023/10/15 03:38:38;;;;;;;;;;;;;;;;;;5091305;28;19912;-86
2023/10/15 03:41:27;;;;;;;;;;;;;;;;;;5092151;28;19957;-86
2023/10/15 03:43:53;;;;;;;;;;;;;;;;;;5091456;28;19966;-86
2023/10/15 03:46:19;;;;;;;;;;;;;;;;;;5092592;28;19962;-87
2023/10/15 03:48:49;;;;;;;;;;;;;;;;;;5092227;28;19916;-85
2023/10/15 03:51:20;;;;;;;;;;;;;;;;;;5092276;28;20344;-86
2023/10/15 03:53:49;;;;;;;;;;;;;;;;;;5090981;28;19933;-88
2023/10/15 03:56:18;;;;;;;;;;;;;;;;;;5091232;28;19912;-86
2023/10/15 03:58:44;;;;;;;;;;;;;;;;;;5091515;28;19919;-87
2023/10/15 04:01:20;;;;;;;;;;;;;;;;;;5092320;28;19908;-84
2023/10/15 04:03:49;;;;;;;;;;;;;;;;;;5091038;28;19919;-88
2023/10/15 04:06:14;;;;;;;;;;;;;;;;;;5088079;28;19916;-86
2023/10/15 04:08:59;;;;;;;;;;;;;;;;;;5091799;28;20010;-87
2023/10/15 04:11:29;;;;;;;;;;;;;;;;;;5090702;28;20287;-83
2023/10/15 04:13:56;;;;;;;;;;;;;;;;;;5091974;28;19939;-84
2023/10/15 04:16:23;;;;;;;;;;;;;;;;;;5089990;28;19918;-86
2023/10/15 04:18:48;;;;;;;;;;;;;;;;;;5090550;28;20375;-87
2023/10/15 04:21:19;;;;;;;;;;;;;;;;;;5089558;28;19923;-85
2023/10/15 04:23:49;;;;;;;;;;;;;;;;;;5091150;28;19944;-85
2023/10/15 04:26:15;;;;;;;;;;;;;;;;;;5091359;28;19966;-85
2023/10/15 04:28:41;;;;;;;;;;;;;;;;;;5091666;28;19908;-86
2023/10/15 04:31:12;;;;;;;;;;;;;;;;;;5092304;28;19920;-85
2023/10/15 04:33:41;;;;;;;;;;;;;;;;;;5092060;28;19931;-84
2023/10/15 04:36:09;;;;;;;;;;;;;;;;;;5091779;28;20347;-87
2023/10/15 04:38:35;;;;;;;;;;;;;;;;;;5089590;28;19912;-84
2023/10/15 04:41:03;;;;;;;;;;;;;;;;;;5089303;28;20332;-84
2023/10/15 04:43:29;;;;;;;;;;;;;;;;;;5090022;28;20375;-86
2023/10/15 04:45:55;;;;;;;;;;;;;;;;;;5091343;28;19909;-84
2023/10/15 04:48:30;;;;;;;;;;;;;;;;;;5089798;28;19916;-88
2023/10/15 04:50:56;;;;;;;;;;;;;;;;;;5091159;28;19965;-88
2023/10/15 04:55:48;;;;;;;;;;;;;;;;;;5090784;28;20014;-83
2023/10/15 04:58:13;;;;;;;;;;;;;;;;;;5091245;28;19908;-89
2023/10/15 05:00:39;;;;;;;;;;;;;;;;;;5089872;28;19915;-84
2023/10/15 05:03:05;;;;;;;;;;;;;;;;;;5091725;28;19908;-86
2023/10/15 05:05:31;;;;;;;;;;;;;;;;;;5089814;28;19961;-90
2023/10/15 05:07:59;;;;;;;;;;;;;;;;;;5089571;28;19912;-89
2023/10/15 05:10:26;;;;;;;;;;;;;;;;;;5085431;28;20006;-83
2023/10/15 05:12:51;;;;;;;;;;;;;;;;;;5078925;28;19913;-82
2023/10/15 05:15:18;;;;;;;;;;;;;;;;;;5090216;28;19962;-82
2023/10/15 05:17:47;;;;;;;;;;;;;;;;;;5090290;28;19913;-87
2023/10/15 05:20:13;;;;;;;;;;;;;;;;;;5088828;28;19908;-83
2023/10/15 05:22:39;;;;;;;;;;;;;;;;;;5086052;28;19954;-83
2023/10/15 05:25:05;;;;;;;;;;;;;;;;;;5081245;28;19944;-86
2023/10/15 05:27:33;;;;;;;;;;;;;;;;;;5087119;28;19977;-86
2023/10/15 05:29:58;;;;;;;;;;;;;;;;;;5088554;28;19920;-87
2023/10/15 05:32:24;;;;;;;;;;;;;;;;;;5089014;28;19921;-85
2023/10/15 05:34:51;;;;;;;;;;;;;;;;;;5088980;28;19915;-82
2023/10/15 05:37:17;;;;;;;;;;;;;;;;;;5090172;28;20280;-87
2023/10/15 05:39:43;;;;;;;;;;;;;;;;;;5088747;28;19912;-83
2023/10/15 05:42:09;;;;;;;;;;;;;;;;;;5090816;28;19908;-84
2023/10/15 05:44:35;;;;;;;;;;;;;;;;;;5088730;28;19954;-88
2023/10/15 05:47:01;;;;;;;;;;;;;;;;;;5082191;28;19916;-84
2023/10/15 05:49:27;;;;;;;;;;;;;;;;;;5085797;28;19915;-82
2023/10/15 05:51:53;;;;;;;;;;;;;;;;;;5089751;28;20290;-84
2023/10/15 05:54:19;;;;;;;;;;;;;;;;;;5087639;28;19912;-87
2023/10/15 05:56:45;;;;;;;;;;;;;;;;;;5089230;28;19922;-86
2023/10/15 05:59:11;;;;;;;;;;;;;;;;;;5090524;28;20002;-83
2023/10/15 06:01:37;;;;;;;;;;;;;;;;;;5082153;28;19952;-82
2023/10/15 06:04:03;;;;;;;;;;;;;;;;;;5086354;28;20178;-88
2023/10/15 06:06:29;;;;;;;;;;;;;;;;;;5088904;28;19919;-86
2023/10/15 06:08:56;;;;;;;;;;;;;;;;;;5089471;28;19993;-83
2023/10/15 06:11:22;;;;;;;;;;;;;;;;;;5088267;28;19927;-83
2023/10/15 06:13:48;;;;;;;;;;;;;;;;;;5088756;28;19916;-84
2023/10/15 06:16:14;;;;;;;;;;;;;;;;;;5090203;28;20287;-81
2023/10/15 06:18:41;;;;;;;;;;;;;;;;;;5090518;28;20269;-86
2023/10/15 06:21:07;;;;;;;;;;;;;;;;;;5084805;28;19972;-84
2023/10/15 06:23:33;;;;;;;;;;;;;;;;;;5084178;28;20448;-88
2023/10/15 06:25:59;;;;;;;;;;;;;;;;;;5074719;28;19909;-81
2023/10/15 06:28:25;;;;;;;;;;;;;;;;;;5087789;28;19913;-82
2023/10/15 06:30:51;;;;;;;;;;;;;;;;;;5084510;28;19916;-83
2023/10/15 06:33:18;;;;;;;;;;;;;;;;;;5087085;28;19919;-83
2023/10/15 06:35:44;;;;;;;;;;;;;;;;;;5084842;28;19912;-82
2023/10/15 06:38:09;;;;;;;;;;;;;;;;;;5083754;28;19999;-87
2023/10/15 06:40:35;;;;;;;;;;;;;;;;;;5092364;28;19961;-81
2023/10/15 06:43:01;;;;;;;;;;;;;;;;;;5092292;28;19990;-83
2023/10/15 06:45:27;;;;;;;;;;;;;;;;;;5089820;28;19912;-82
2023/10/15 06:47:53;;;;;;;;;;;;;;;;;;5092423;28;19916;-82
2023/10/15 06:50:22;;;;;;;;;;;;;;;;;;5092561;28;19967;-87
2023/10/15 06:52:48;;;;;;;;;;;;;;;;;;5091174;28;19923;-81
2023/10/15 06:55:15;;;;;;;;;;;;;;;;;;5093049;28;19912;-82
2023/10/15 06:57:42;;;;;;;;;;;;;;;;;;5091134;28;19987;-90
2023/10/15 07:00:08;;;;;;;;;;;;;;;;;;5090446;28;19912;-81
2023/10/15 07:02:34;;;;;;;;;;;;;;;;;;5093958;28;19908;-88
2023/10/15 07:05:03;;;;;;;;;;;;;;;;;;5090726;28;20009;-83
2023/10/15 07:07:29;;;;;;;;;;;;;;;;;;5094156;28;19919;-84
2023/10/15 07:09:55;;;;;;;;;;;;;;;;;;5090539;28;19923;-87
2023/10/15 07:12:20;;;;;;;;;;;;;;;;;;5092674;28;19908;-86
2023/10/15 07:14:46;;;;;;;;;;;;;;;;;;5091996;28;19912;-84
2023/10/15 07:17:12;;;;;;;;;;;;;;;;;;5096269;28;19915;-84
2023/10/15 07:19:38;;;;;;;;;;;;;;;;;;5091349;28;20280;-86
2023/10/15 07:22:04;;;;;;;;;;;;;;;;;;5100997;28;19908;-86
2023/10/15 07:24:31;;;;;;;;;;;;;;;;;;5094877;28;19938;-82
2023/10/15 07:26:57;;;;;;;;;;;;;;;;;;5086646;28;19912;-80
2023/10/15 07:29:24;;;;;;;;;;;;;;;;;;5091338;28;19977;-81
2023/10/15 07:31:49;;;;;;;;;;;;;;;;;;5091324;28;19912;-80
2023/10/15 07:34:17;;;;;;;;;;;;;;;;;;5091327;28;19908;-81
2023/10/15 07:36:43;;;;;;;;;;;;;;;;;;5095086;28;19990;-81
2023/10/15 07:39:09;;;;;;;;;;;;;;;;;;5091594;28;19915;-83
2023/10/15 07:41:35;;;;;;;;;;;;;;;;;;5091190;28;19916;-81
2023/10/15 07:44:03;;;;;;;;;;;;;;;;;;5097037;28;20399;-81
2023/10/15 07:46:29;;;;;;;;;;;;;;;;;;5091382;28;19912;-82
2023/10/15 07:48:56;;;;;;;;;;;;;;;;;;5090767;28;19958;-80
2023/10/15 07:51:21;;;;;;;;;;;;;;;;;;5088659;28;19939;-82
2023/10/15 07:53:47;;;;;;;;;;;;;;;;;;5092308;28;20375;-81
2023/10/15 07:56:14;;;;;;;;;;;;;;;;;;5092151;28;19909;-85
2023/10/15 07:58:40;;;;;;;;;;;;;;;;;;5089904;28;20356;-84
2023/10/15 08:01:06;;;;;;;;;;;;;;;;;;5089782;28;20341;-82
2023/10/15 08:03:32;;;;;;;;;;;;;;;;;;5086282;28;19908;-84
2023/10/15 08:05:58;;;;;;;;;;;;;;;;;;5094892;28;19958;-81
2023/10/15 08:08:24;;;;;;;;;;;;;;;;;;5093763;28;19947;-82
2023/10/15 08:10:51;;;;;;;;;;;;;;;;;;5093011;28;19920;-82
2023/10/15 08:13:18;;;;;;;;;;;;;;;;;;5090953;28;19995;-82
2023/10/15 08:15:44;;;;;;;;;;;;;;;;;;5089342;28;20316;-84
2023/10/15 08:18:12;;;;;;;;;;;;;;;;;;5090238;28;19908;-81
2023/10/15 08:20:38;;;;;;;;;;;;;;;;;;5090251;28;19912;-82
2023/10/15 08:23:04;;;;;;;;;;;;;;;;;;5091153;28;20043;-81
2023/10/15 08:25:31;;;;;;;;;;;;;;;;;;5091425;28;19908;-81
2023/10/15 08:27:57;;;;;;;;;;;;;;;;;;5088730;28;20287;-82
2023/10/15 08:30:23;;;;;;;;;;;;;;;;;;5090035;28;19916;-81
2023/10/15 08:32:49;;;;;;;;;;;;;;;;;;5091396;28;19961;-81
2023/10/15 08:35:15;;;;;;;;;;;;;;;;;;5090758;28;19919;-83
2023/10/15 08:37:41;;;;;;;;;;;;;;;;;;5090061;28;20397;-81
2023/10/15 08:40:07;;;;;;;;;;;;;;;;;;5091361;28;20003;-89
2023/10/15 08:42:34;;;;;;;;;;;;;;;;;;5088641;28;19912;-80
2023/10/15 08:45:04;;;;;;;;;;;;;;;;;;5091000;28;19969;-84
2023/10/15 08:47:30;;;;;;;;;;;;;;;;;;5090910;28;20272;-82
2023/10/15 08:49:58;;;;;;;;;;;;;;;;;;5089909;28;19923;-83
2023/10/15 08:52:26;;;;;;;;;;;;;;;;;;5088117;28;19912;-84
2023/10/15 08:54:52;;;;;;;;;;;;;;;;;;5089833;28;19912;-82
2023/10/15 08:57:19;;;;;;;;;;;;;;;;;;5091020;28;20283;-80
2023/10/15 08:59:45;;;;;;;;;;;;;;;;;;5091967;28;19908;-82
2023/10/15 09:02:13;;;;;;;;;;;;;;;;;;5089535;28;19912;-88
2023/10/15 09:04:39;;;;;;;;;;;;;;;;;;5089539;28;20378;-81
2023/10/15 09:07:05;;;;;;;;;;;;;;;;;;5089613;28;19912;-89
2023/10/15 09:09:34;;;;;;;;;;;;;;;;;;5090109;28;19916;-82
2023/10/15 09:12:00;;;;;;;;;;;;;;;;;;5089070;28;19916;-89
2023/10/15 09:14:25;;;;;;;;;;;;;;;;;;5088267;28;20007;-81
2023/10/15 09:16:52;;;;;;;;;;;;;;;;;;5099578;28;20272;-82
2023/10/15 09:19:17;;;;;;;;;;;;;;;;;;5090374;28;19912;-88
2023/10/15 09:21:43;;;;;;;;;;;;;;;;;;5101623;28;19916;-88
2023/10/15 09:24:09;;;;;;;;;;;;;;;;;;5092867;28;20367;-81
2023/10/15 09:26:35;;;;;;;;;;;;;;;;;;5074494;28;19917;-82
2023/10/15 09:29:01;;;;;;;;;;;;;;;;;;5089070;28;19926;-85
2023/10/15 09:31:27;;;;;;;;;;;;;;;;;;5089903;28;19916;-84
2023/10/15 09:33:54;;;;;;;;;;;;;;;;;;5090506;28;19908;-86
2023/10/15 09:36:20;;;;;;;;;;;;;;;;;;5090775;28;20295;-84
2023/10/15 09:38:46;;;;;;;;;;;;;;;;;;5102011;28;20010;-83
2023/10/15 09:41:12;;;;;;;;;;;;;;;;;;5088554;28;20002;-81
2023/10/15 09:43:38;;;;;;;;;;;;;;;;;;5090197;28;20315;-87
2023/10/15 09:46:05;;;;;;;;;;;;;;;;;;5088871;28;20380;-82
2023/10/15 09:48:33;;;;;;;;;;;;;;;;;;5090083;28;19916;-87
2023/10/15 09:50:59;;;;;;;;;;;;;;;;;;5090142;28;19935;-83
2023/10/15 09:53:27;;;;;;;;;;;;;;;;;;5090249;28;19912;-87
2023/10/15 09:55:53;;;;;;;;;;;;;;;;;;5089029;28;19926;-81
2023/10/15 09:58:19;;;;;;;;;;;;;;;;;;5090024;28;19958;-87
2023/10/15 10:01:27;;;;;;;;;;;;;;;;;;5088932;28;19915;-86
2023/10/15 10:03:37;;;;;;;;;;;;;;;;;;5084237;28;20391;-90
2023/10/15 10:06:09;;;;;;;;;;;;;;;;;;5088779;28;20006;-82
2023/10/15 10:08:35;;;;;;;;;;;;;;;;;;5088607;28;19912;-86
2023/10/15 10:11:02;;;;;;;;;;;;;;;;;;5089681;28;19920;-86
2023/10/15 10:13:28;;;;;;;;;;;;;;;;;;5089141;28;19908;-85
2023/10/15 10:15:54;;;;;;;;;;;;;;;;;;5089682;28;19908;-81
2023/10/15 10:18:21;;;;;;;;;;;;;;;;;;5090760;28;19915;-88
2023/10/15 10:20:48;;;;;;;;;;;;;;;;;;5087359;28;19920;-84
2023/10/15 10:23:14;;;;;;;;;;;;;;;;;;5088726;28;20778;-85
2023/10/15 10:25:40;;;;;;;;;;;;;;;;;;5089952;28;19908;-87
2023/10/15 10:28:06;;;;;;;;;;;;;;;;;;5088795;28;19912;-87
2023/10/15 10:30:32;;;;;;;;;;;;;;;;;;5089171;28;19920;-86
2023/10/15 10:32:58;;;;;;;;;;;;;;;;;;5089780;28;19969;-88
2023/10/15 10:35:24;;;;;;;;;;;;;;;;;;5090697;28;20310;-85
2023/10/15 10:37:50;;;;;;;;;;;;;;;;;;5090623;28;19908;-85
2023/10/15 10:40:17;;;;;;;;;;;;;;;;;;5088551;28;19905;-88
2023/10/15 10:42:43;;;;;;;;;;;;;;;;;;5088986;28;19912;-83
2023/10/15 10:45:12;;;;;;;;;;;;;;;;;;5088058;28;19954;-87
2023/10/15 10:47:38;;;;;;;;;;;;;;;;;;5089512;28;19959;-83
2023/10/15 10:50:06;;;;;;;;;;;;;;;;;;5089487;28;19939;-87
2023/10/15 10:52:34;;;;;;;;;;;;;;;;;;5089771;28;20364;-84
2023/10/15 10:55:00;;;;;;;;;;;;;;;;;;5089689;28;19980;-83
2023/10/15 10:57:27;;;;;;;;;;;;;;;;;;5089422;28;19955;-82
2023/10/15 10:59:53;;;;;;;;;;;;;;;;;;5083630;28;19912;-83
2023/10/15 11:02:20;;;;;;;;;;;;;;;;;;5089593;28;19908;-87
2023/10/15 11:04:47;;;;;;;;;;;;;;;;;;5089500;28;19912;-87
2023/10/15 11:07:14;;;;;;;;;;;;;;;;;;5088450;28;19912;-82
2023/10/15 11:09:40;;;;;;;;;;;;;;;;;;5089117;28;19923;-87
2023/10/15 11:12:06;;;;;;;;;;;;;;;;;;5087859;28;19908;-83
2023/10/15 11:14:32;;;;;;;;;;;;;;;;;;5086306;28;19957;-85
2023/10/15 11:16:58;;;;;;;;;;;;;;;;;;5089267;28;20367;-84
2023/10/15 11:19:24;;;;;;;;;;;;;;;;;;5088862;28;19908;-84
2023/10/15 11:21:50;;;;;;;;;;;;;;;;;;5089120;28;20007;-85
2023/10/15 11:24:15;;;;;;;;;;;;;;;;;;5089293;28;19964;-86
2023/10/15 11:26:41;;;;;;;;;;;;;;;;;;5093245;28;19916;-85
2023/10/15 11:29:07;;;;;;;;;;;;;;;;;;5092969;28;19947;-85
2023/10/15 11:31:34;;;;;;;;;;;;;;;;;;5092722;28;19919;-88
2023/10/15 11:34:00;;;;;;;;;;;;;;;;;;5091425;28;20443;-87
2023/10/15 11:36:27;;;;;;;;;;;;;;;;;;5093561;28;20002;-86
2023/10/15 11:38:53;;;;;;;;;;;;;;;;;;5093433;28;20288;-86
2023/10/15 11:41:19;;;;;;;;;;;;;;;;;;5091157;28;19916;-82
2023/10/15 11:43:45;;;;;;;;;;;;;;;;;;5092488;28;19912;-82
2023/10/15 11:46:11;;;;;;;;;;;;;;;;;;5092079;28;19991;-90
2023/10/15 11:48:40;;;;;;;;;;;;;;;;;;5066362;28;19999;-88
2023/10/15 11:51:08;;;;;;;;;;;;;;;;;;5072601;28;19924;-85
2023/10/15 11:53:34;;;;;;;;;;;;;;;;;;5072198;28;19909;-89
2023/10/15 11:55:59;;;;;;;;;;;;;;;;;;5053909;28;19913;-82
2023/10/15 11:58:31;;;;;;;;;;;;;;;;;;5072713;28;19908;-81
2023/10/15 12:00:58;;;;;;;;;;;;;;;;;;5072653;28;19904;-81
2023/10/15 12:03:24;;;;;;;;;;;;;;;;;;5061411;28;20281;-87
2023/10/15 12:05:51;;;;;;;;;;;;;;;;;;5058170;28;20380;-85
2023/10/15 12:08:20;;;;;;;;;;;;;;;;;;5053338;28;20291;-81
2023/10/15 12:10:46;;;;;;;;;;;;;;;;;;5053540;28;20384;-81
2023/10/15 12:13:15;;;;;;;;;;;;;;;;;;5053974;28;19916;-83
2023/10/15 12:15:41;;;;;;;;;;;;;;;;;;5071568;28;19912;-85
2023/10/15 12:18:07;;;;;;;;;;;;;;;;;;5071644;28;19930;-83
2023/10/15 12:20:33;;;;;;;;;;;;;;;;;;5053532;28;19920;-85
2023/10/15 12:22:59;;;;;;;;;;;;;;;;;;5048029;28;19921;-84
2023/10/15 12:25:25;;;;;;;;;;;;;;;;;;5052224;28;19908;-85
2023/10/15 12:27:51;;;;;;;;;;;;;;;;;;5033531;28;20276;-82
2023/10/15 12:30:35;;;;;;;;;;;;;;;;;;5051501;28;20365;-87
2023/10/15 12:33:01;;;;;;;;;;;;;;;;;;5033492;28;20361;-81
2023/10/15 12:35:30;;;;;;;;;;;;;;;;;;5033778;28;19924;-82
2023/10/15 12:38:02;;;;;;;;;;;;;;;;;;5051740;28;19963;-86
2023/10/15 12:40:34;;;;;;;;;;;;;;;;;;5063051;28;19968;-88
2023/10/15 12:43:00;;;;;;;;;;;;;;;;;;5092056;28;19908;-82
2023/10/15 12:45:26;;;;;;;;;;;;;;;;;;5086770;28;20419;-84
2023/10/15 12:47:52;;;;;;;;;;;;;;;;;;5082657;28;19969;-86
2023/10/15 12:50:18;;;;;;;;;;;;;;;;;;5091069;28;19916;-85
2023/10/15 12:52:45;;;;;;;;;;;;;;;;;;5091192;28;19915;-87
2023/10/15 12:55:11;;;;;;;;;;;;;;;;;;5091081;28;19904;-81
2023/10/15 12:57:36;;;;;;;;;;;;;;;;;;5089617;28;20328;-82
2023/10/15 13:00:17;;;;;;;;;;;;;;;;;;5087871;28;20281;-82
2023/10/15 13:02:43;;;;;;;;;;;;;;;;;;5086376;28;19913;-86
2023/10/15 13:05:09;;;;;;;;;;;;;;;;;;5069244;28;20336;-82
2023/10/15 13:07:35;;;;;;;;;;;;;;;;;;5070503;28;20057;-83
2023/10/15 13:10:01;;;;;;;;;;;;;;;;;;5070839;28;19950;-82
2023/10/15 13:12:27;;;;;;;;;;;;;;;;;;5070718;28;20295;-81
2023/10/15 13:14:53;;;;;;;;;;;;;;;;;;5070127;28;20364;-85
2023/10/15 13:17:19;;;;;;;;;;;;;;;;;;5072840;28;19916;-81
2023/10/15 13:19:45;;;;;;;;;;;;;;;;;;5090486;28;19973;-81
2023/10/15 13:22:11;;;;;;;;;;;;;;;;;;5088982;28;19944;-81
2023/10/15 13:24:38;;;;;;;;;;;;;;;;;;5088070;28;19912;-86
2023/10/15 13:27:05;;;;;;;;;;;;;;;;;;5088844;28;19915;-80
2023/10/15 13:29:31;;;;;;;;;;;;;;;;;;5089311;28;20372;-81
2023/10/15 13:31:57;;;;;;;;;;;;;;;;;;5090145;28;19919;-81
2023/10/15 13:34:22;;;;;;;;;;;;;;;;;;5089593;28;19912;-82
2023/10/15 13:36:48;;;;;;;;;;;;;;;;;;5090072;28;19990;-83
2023/10/15 13:39:22;;;;;;;;;;;;;;;;;;5090148;28;19908;-81
2023/10/15 13:41:48;;;;;;;;;;;;;;;;;;5089848;28;20390;-83
2023/10/15 13:44:14;;;;;;;;;;;;;;;;;;5088842;28;19916;-80
2023/10/15 13:46:45;;;;;;;;;;;;;;;;;;5086446;28;19912;-83
2023/10/15 13:49:10;;;;;;;;;;;;;;;;;;5088501;28;19915;-84
2023/10/15 13:51:36;;;;;;;;;;;;;;;;;;5069723;28;20296;-83
2023/10/15 13:54:02;;;;;;;;;;;;;;;;;;5080115;28;19992;-81
2023/10/15 13:56:28;;;;;;;;;;;;;;;;;;5089585;28;20387;-81
2023/10/15 13:58:54;;;;;;;;;;;;;;;;;;5089768;28;20272;-86
2023/10/15 14:01:20;;;;;;;;;;;;;;;;;;5089830;28;19908;-81
2023/10/15 14:03:47;;;;;;;;;;;;;;;;;;5088555;28;19908;-82
2023/10/15 14:06:13;;;;;;;;;;;;;;;;;;5088126;28;19912;-83
2023/10/15 14:08:39;;;;;;;;;;;;;;;;;;5088760;28;19973;-84
2023/10/15 14:11:07;;;;;;;;;;;;;;;;;;5088286;28;19920;-81
2023/10/15 14:13:33;;;;;;;;;;;;;;;;;;5088158;28;19921;-82
2023/10/15 14:16:01;;;;;;;;;;;;;;;;;;5089768;28;19914;-85
2023/10/15 14:18:28;;;;;;;;;;;;;;;;;;5089849;28;19908;-83
2023/10/15 14:20:54;;;;;;;;;;;;;;;;;;5088325;28;20003;-85
2023/10/15 14:23:20;;;;;;;;;;;;;;;;;;5089645;28;19943;-82
2023/10/15 14:25:47;;;;;;;;;;;;;;;;;;5087005;28;19920;-81
2023/10/15 14:28:13;;;;;;;;;;;;;;;;;;5089486;28;19995;-82
2023/10/15 14:30:39;;;;;;;;;;;;;;;;;;5089395;28;20015;-81
2023/10/15 14:33:05;;;;;;;;;;;;;;;;;;5087134;28;21492;-85
2023/10/15 14:35:31;;;;;;;;;;;;;;;;;;5087887;28;20419;-84
2023/10/15 14:37:57;;;;;;;;;;;;;;;;;;5089571;28;19972;-83
2023/10/15 14:40:23;;;;;;;;;;;;;;;;;;5086957;28;20003;-82
2023/10/15 14:42:49;;;;;;;;;;;;;;;;;;5088281;28;19976;-81
2023/10/15 14:45:16;;;;;;;;;;;;;;;;;;5089345;28;19915;-81
2023/10/15 14:47:42;;;;;;;;;;;;;;;;;;5087866;28;19935;-81
2023/10/15 14:50:10;;;;;;;;;;;;;;;;;;5085996;28;19954;-80
2023/10/15 14:52:36;;;;;;;;;;;;;;;;;;5087844;28;19919;-81
2023/10/15 14:55:01;;;;;;;;;;;;;;;;;;5086441;28;19909;-81
2023/10/15 14:57:29;;;;;;;;;;;;;;;;;;5087608;28;20295;-83
2023/10/15 14:59:54;;;;;;;;;;;;;;;;;;5086934;28;19908;-84
2023/10/15 15:02:20;;;;;;;;;;;;;;;;;;5092221;28;19978;-83
2023/10/15 15:04:47;;;;;;;;;;;;;;;;;;5091454;28;19947;-82
2023/10/15 15:07:13;;;;;;;;;;;;;;;;;;5075491;28;19912;-85
2023/10/15 15:09:39;;;;;;;;;;;;;;;;;;5073562;28;19928;-82
2023/10/15 15:12:05;;;;;;;;;;;;;;;;;;5090659;28;20280;-84
2023/10/15 15:14:31;;;;;;;;;;;;;;;;;;5088824;28;19956;-87
2023/10/15 15:16:57;;;;;;;;;;;;;;;;;;5091179;28;19948;-88
2023/10/15 15:19:23;;;;;;;;;;;;;;;;;;5090193;28;20333;-90
2023/10/15 15:21:49;;;;;;;;;;;;;;;;;;5091531;28;19919;-90
2023/10/15 15:24:21;;;;;;;;;;;;;;;;;;5091511;28;19966;-88
2023/10/15 15:26:46;;;;;;;;;;;;;;;;;;5092742;28;19961;-89
2023/10/15 15:29:13;;;;;;;;;;;;;;;;;;5091396;28;19919;-89
2023/10/15 15:31:39;;;;;;;;;;;;;;;;;;5073516;28;20056;-88
2023/10/15 15:34:05;;;;;;;;;;;;;;;;;;5100088;28;20307;-85
2023/10/15 15:36:31;;;;;;;;;;;;;;;;;;5090964;28;19912;-84
2023/10/15 15:38:57;;;;;;;;;;;;;;;;;;5092504;28;19914;-88
2023/10/15 15:41:26;;;;;;;;;;;;;;;;;;5082400;28;19915;-89
2023/10/15 15:43:52;;;;;;;;;;;;;;;;;;5091166;28;19908;-89
2023/10/15 15:46:18;;;;;;;;;;;;;;;;;;5085831;28;20417;-82
2023/10/15 15:48:45;;;;;;;;;;;;;;;;;;5090772;28;19923;-88
2023/10/15 15:51:12;;;;;;;;;;;;;;;;;;5091143;28;19973;-83
2023/10/15 15:53:38;;;;;;;;;;;;;;;;;;5092012;28;19909;-86
2023/10/15 15:56:08;;;;;;;;;;;;;;;;;;5090859;28;19965;-89
2023/10/15 15:58:34;;;;;;;;;;;;;;;;;;5091472;28;19961;-88
2023/10/15 16:01:00;;;;;;;;;;;;;;;;;;5091062;28;20225;-88
2023/10/15 16:03:26;;;;;;;;;;;;;;;;;;5091092;28;20272;-90
2023/10/15 16:05:52;;;;;;;;;;;;;;;;;;5091507;28;19908;-87
2023/10/15 16:08:18;;;;;;;;;;;;;;;;;;5088884;28;19912;-82
2023/10/15 16:10:44;;;;;;;;;;;;;;;;;;5088720;28;19916;-86
2023/10/15 16:13:11;;;;;;;;;;;;;;;;;;5090888;28;19908;-84
2023/10/15 16:15:36;;;;;;;;;;;;;;;;;;5091083;28;20291;-86
2023/10/15 16:18:04;;;;;;;;;;;;;;;;;;5090713;28;20003;-83
2023/10/15 16:20:30;;;;;;;;;;;;;;;;;;5089420;28;20295;-88
2023/10/15 16:22:56;;;;;;;;;;;;;;;;;;5090088;28;20382;-89
2023/10/15 16:25:22;;;;;;;;;;;;;;;;;;5080666;28;19916;-88
2023/10/15 16:27:48;;;;;;;;;;;;;;;;;;5090617;28;20338;-90
2023/10/15 16:30:14;;;;;;;;;;;;;;;;;;5089438;28;19970;-88
2023/10/15 16:32:40;;;;;;;;;;;;;;;;;;5090163;28;19919;-89
2023/10/15 16:35:08;;;;;;;;;;;;;;;;;;5087018;28;19912;-89
2023/10/15 16:37:34;;;;;;;;;;;;;;;;;;5090370;28;19908;-88
2023/10/15 16:40:00;;;;;;;;;;;;;;;;;;5089326;28;19919;-87
2023/10/15 16:42:25;;;;;;;;;;;;;;;;;;5089138;28;20308;-89
2023/10/15 16:44:52;;;;;;;;;;;;;;;;;;5090542;28;19912;-86
2023/10/15 16:47:17;;;;;;;;;;;;;;;;;;5090950;28;19923;-88
2023/10/15 16:49:43;;;;;;;;;;;;;;;;;;5091060;28;19912;-89
2023/10/15 16:52:09;;;;;;;;;;;;;;;;;;5088848;28;20405;-87
2023/10/15 16:54:36;;;;;;;;;;;;;;;;;;5089161;28;20371;-86
2023/10/15 16:57:02;;;;;;;;;;;;;;;;;;5094812;28;20240;-89